createdAt,value
2018-05-27T00:00:20.315Z,21.23
2018-05-27T00:01:20.304Z,21.22
2018-05-27T00:02:20.292Z,21.19
2018-05-27T00:03:20.296Z,21.23
2018-05-27T00:04:20.272Z,21.22
2018-05-27T00:05:20.408Z,21.15
2018-05-27T00:06:20.245Z,21.10
2018-05-27T00:07:20.246Z,21.08
2018-05-27T00:08:20.222Z,21.14
2018-05-27T00:09:20.210Z,21.07
2018-05-27T00:10:20.205Z,21.13
2018-05-27T00:11:20.185Z,21.04
2018-05-27T00:12:20.172Z,21.04
2018-05-27T00:13:20.161Z,21.01
2018-05-27T00:14:20.148Z,21.01
2018-05-27T00:15:20.137Z,20.92
2018-05-27T00:16:20.122Z,20.85
2018-05-27T00:17:20.113Z,20.83
2018-05-27T00:18:20.100Z,20.86
2018-05-27T00:19:20.092Z,20.88
2018-05-27T00:20:20.078Z,20.89
2018-05-27T00:21:20.062Z,20.90
2018-05-27T00:22:20.058Z,20.86
2018-05-27T00:23:20.046Z,20.83
2018-05-27T00:24:20.027Z,20.88
2018-05-27T00:25:20.017Z,20.90
2018-05-27T00:26:20.021Z,20.88
2018-05-27T00:27:19.988Z,20.88
2018-05-27T00:28:19.983Z,20.98
2018-05-27T00:29:19.980Z,20.95
2018-05-27T00:30:19.957Z,20.96
2018-05-27T00:31:19.941Z,20.96
2018-05-27T00:32:19.930Z,20.93
2018-05-27T00:33:19.917Z,20.86
2018-05-27T00:34:19.908Z,20.90
2018-05-27T00:35:19.893Z,20.88
2018-05-27T00:36:19.880Z,20.86
2018-05-27T00:37:19.869Z,20.82
2018-05-27T00:38:19.857Z,20.75
2018-05-27T00:39:19.844Z,20.77
2018-05-27T00:40:19.841Z,20.70
2018-05-27T00:41:19.819Z,20.75
2018-05-27T00:42:19.807Z,20.71
2018-05-27T00:43:19.799Z,20.73
2018-05-27T00:44:19.780Z,20.64
2018-05-27T00:45:19.768Z,20.68
2018-05-27T00:46:19.760Z,20.68
2018-05-27T00:47:19.746Z,20.56
2018-05-27T00:48:19.734Z,20.66
2018-05-27T00:49:19.727Z,20.71
2018-05-27T00:50:19.708Z,20.64
2018-05-27T00:51:19.798Z,20.55
2018-05-27T00:52:19.692Z,20.55
2018-05-27T00:53:19.673Z,20.53
2018-05-27T00:54:19.663Z,20.55
2018-05-27T00:55:19.647Z,20.58
2018-05-27T00:56:19.640Z,20.58
2018-05-27T00:57:19.624Z,20.55
2018-05-27T00:58:19.611Z,20.63
2018-05-27T00:59:19.599Z,20.44
2018-05-27T01:00:19.590Z,20.55
2018-05-27T01:01:19.576Z,20.59
2018-05-27T01:02:19.570Z,20.56
2018-05-27T01:03:19.548Z,20.63
2018-05-27T01:04:19.579Z,20.58
2018-05-27T01:05:19.531Z,20.53
2018-05-27T01:06:19.513Z,20.50
2018-05-27T01:07:19.550Z,20.39
2018-05-27T01:08:19.493Z,20.53
2018-05-27T01:09:19.474Z,20.46
2018-05-27T01:10:19.463Z,20.52
2018-05-27T01:11:19.447Z,20.39
2018-05-27T01:12:19.436Z,20.44
2018-05-27T01:13:19.432Z,20.50
2018-05-27T01:14:19.413Z,20.40
2018-05-27T01:15:19.402Z,20.50
2018-05-27T01:16:19.387Z,20.40
2018-05-27T01:17:19.387Z,20.33
2018-05-27T01:18:19.362Z,20.33
2018-05-27T01:19:19.354Z,20.37
2018-05-27T01:20:19.338Z,20.36
2018-05-27T01:21:19.325Z,20.33
2018-05-27T01:22:19.313Z,20.34
2018-05-27T01:23:19.301Z,20.29
2018-05-27T01:24:19.288Z,20.32
2018-05-27T01:25:19.275Z,20.30
2018-05-27T01:26:19.263Z,20.15
2018-05-27T01:27:19.253Z,20.14
2018-05-27T01:28:19.237Z,20.21
2018-05-27T01:29:19.224Z,20.27
2018-05-27T01:30:19.214Z,20.24
2018-05-27T01:31:19.208Z,20.24
2018-05-27T01:32:19.187Z,20.19
2018-05-27T01:33:19.174Z,20.22
2018-05-27T01:34:19.167Z,20.19
2018-05-27T01:35:19.151Z,20.26
2018-05-27T01:36:19.136Z,20.27
2018-05-27T01:37:19.125Z,20.15
2018-05-27T01:38:19.120Z,20.24
2018-05-27T01:39:19.101Z,20.18
2018-05-27T01:40:19.096Z,20.21
2018-05-27T01:41:19.075Z,20.27
2018-05-27T01:42:19.062Z,20.18
2018-05-27T01:43:19.052Z,20.22
2018-05-27T01:44:19.037Z,20.18
2018-05-27T01:45:19.026Z,20.17
2018-05-27T01:46:19.013Z,20.21
2018-05-27T01:47:19.010Z,20.19
2018-05-27T01:48:18.989Z,20.11
2018-05-27T01:49:18.977Z,20.07
2018-05-27T01:50:18.974Z,20.02
2018-05-27T01:51:18.951Z,19.96
2018-05-27T01:52:18.938Z,19.94
2018-05-27T01:53:18.935Z,19.94
2018-05-27T01:54:18.913Z,19.81
2018-05-27T01:55:18.902Z,19.85
2018-05-27T01:56:18.889Z,19.87
2018-05-27T01:57:18.880Z,19.85
2018-05-27T01:58:18.876Z,19.75
2018-05-27T01:59:18.851Z,19.85
2018-05-27T02:00:18.842Z,19.85
2018-05-27T02:01:18.825Z,19.81
2018-05-27T02:02:18.812Z,19.81
2018-05-27T02:03:18.801Z,19.87
2018-05-27T02:04:18.787Z,19.79
2018-05-27T02:05:18.779Z,19.74
2018-05-27T02:06:18.762Z,19.63
2018-05-27T02:07:18.751Z,19.74
2018-05-27T02:08:18.749Z,19.63
2018-05-27T02:09:18.721Z,19.64
2018-05-27T02:10:18.712Z,19.64
2018-05-27T02:11:18.698Z,19.55
2018-05-27T02:12:18.684Z,19.55
2018-05-27T02:13:18.673Z,19.62
2018-05-27T02:14:18.659Z,19.53
2018-05-27T02:15:18.647Z,19.59
2018-05-27T02:16:18.632Z,19.57
2018-05-27T02:17:18.620Z,19.47
2018-05-27T02:18:18.618Z,19.62
2018-05-27T02:19:18.596Z,19.70
2018-05-27T02:20:18.582Z,19.74
2018-05-27T02:21:18.568Z,19.63
2018-05-27T02:22:18.556Z,19.63
2018-05-27T02:23:18.544Z,19.55
2018-05-27T02:24:18.540Z,19.64
2018-05-27T02:25:18.525Z,19.67
2018-05-27T02:26:18.505Z,19.53
2018-05-27T02:27:18.491Z,19.53
2018-05-27T02:28:18.480Z,19.41
2018-05-27T02:29:18.465Z,19.45
2018-05-27T02:30:18.453Z,19.37
2018-05-27T02:31:18.449Z,19.32
2018-05-27T02:32:18.426Z,19.30
2018-05-27T02:33:18.414Z,19.27
2018-05-27T02:34:18.403Z,19.35
2018-05-27T02:35:18.390Z,19.32
2018-05-27T02:36:18.394Z,19.39
2018-05-27T02:37:18.365Z,19.30
2018-05-27T02:38:18.350Z,19.41
2018-05-27T02:39:18.348Z,19.56
2018-05-27T02:40:18.390Z,19.38
2018-05-27T02:41:18.330Z,19.47
2018-05-27T02:42:18.299Z,19.29
2018-05-27T02:43:18.286Z,19.27
2018-05-27T02:44:18.274Z,19.30
2018-05-27T02:45:18.260Z,19.32
2018-05-27T02:46:18.256Z,19.38
2018-05-27T02:47:18.243Z,19.34
2018-05-27T02:48:18.222Z,19.44
2018-05-27T02:49:18.207Z,19.42
2018-05-27T02:50:18.198Z,19.39
2018-05-27T02:51:18.181Z,19.37
2018-05-27T02:52:18.171Z,19.34
2018-05-27T02:53:18.157Z,19.30
2018-05-27T02:54:18.145Z,19.29
2018-05-27T02:55:18.132Z,19.35
2018-05-27T02:56:18.171Z,19.34
2018-05-27T02:57:18.112Z,19.23
2018-05-27T02:58:18.097Z,19.26
2018-05-27T02:59:18.081Z,19.27
2018-05-27T03:00:18.068Z,19.29
2018-05-27T03:01:18.055Z,19.34
2018-05-27T03:02:18.041Z,19.34
2018-05-27T03:03:18.028Z,19.29
2018-05-27T03:04:18.014Z,19.27
2018-05-27T03:05:18.003Z,19.22
2018-05-27T03:06:17.990Z,19.17
2018-05-27T03:07:17.991Z,19.15
2018-05-27T03:08:17.961Z,19.16
2018-05-27T03:09:21.451Z,19.09
2018-05-27T03:11:12.230Z,19.08
2018-05-27T03:12:12.214Z,19.04
2018-05-27T03:13:12.210Z,19.16
2018-05-27T03:14:14.810Z,19.20
2018-05-27T03:15:12.184Z,19.16
2018-05-27T03:16:12.162Z,19.17
2018-05-27T03:17:12.158Z,19.22
2018-05-27T03:18:12.135Z,19.16
2018-05-27T03:19:12.126Z,19.20
2018-05-27T03:20:12.109Z,19.16
2018-05-27T03:22:12.082Z,19.12
2018-05-27T03:23:12.072Z,19.16
2018-05-27T03:24:12.056Z,19.09
2018-05-27T03:25:12.043Z,19.09
2018-05-27T03:26:12.080Z,19.07
2018-05-27T03:27:12.017Z,19.19
2018-05-27T03:28:12.003Z,19.20
2018-05-27T03:29:55.715Z,19.17
2018-05-27T03:30:55.702Z,19.22
2018-05-27T03:31:55.687Z,19.19
2018-05-27T03:32:55.690Z,19.20
2018-05-27T03:33:55.661Z,19.20
2018-05-27T03:34:55.648Z,19.20
2018-05-27T03:35:55.636Z,19.20
2018-05-27T03:36:55.639Z,19.16
2018-05-27T03:37:55.607Z,19.16
2018-05-27T03:38:55.602Z,19.27
2018-05-27T03:39:55.581Z,19.16
2018-05-27T03:40:55.569Z,19.17
2018-05-27T03:41:55.558Z,19.32
2018-05-27T03:42:55.545Z,19.29
2018-05-27T03:43:55.531Z,19.26
2018-05-27T03:44:55.520Z,19.24
2018-05-27T03:45:55.504Z,19.27
2018-05-27T03:46:55.499Z,19.29
2018-05-27T03:47:55.477Z,19.22
2018-05-27T03:48:55.464Z,19.17
2018-05-27T03:49:58.134Z,19.17
2018-05-27T03:50:55.445Z,19.29
2018-05-27T03:51:56.436Z,19.20
2018-05-27T03:52:55.412Z,19.15
2018-05-27T03:53:55.406Z,19.08
2018-05-27T03:54:55.386Z,19.12
2018-05-27T03:55:55.375Z,19.04
2018-05-27T03:56:55.359Z,18.97
2018-05-27T03:57:55.346Z,18.92
2018-05-27T03:58:55.333Z,18.97
2018-05-27T03:59:55.321Z,18.98
2018-05-27T04:00:55.305Z,18.89
2018-05-27T04:01:55.298Z,18.92
2018-05-27T04:02:56.088Z,18.97
2018-05-27T04:03:55.270Z,18.82
2018-05-27T04:04:55.253Z,18.91
2018-05-27T04:05:55.255Z,18.86
2018-05-27T04:06:55.228Z,18.81
2018-05-27T04:07:55.213Z,18.81
2018-05-27T04:08:55.199Z,18.89
2018-05-27T04:09:55.795Z,18.91
2018-05-27T04:10:55.173Z,18.91
2018-05-27T04:11:55.165Z,19.04
2018-05-27T04:12:55.153Z,18.98
2018-05-27T04:13:55.135Z,19.07
2018-05-27T04:14:55.124Z,19.00
2018-05-27T04:15:55.107Z,19.00
2018-05-27T04:16:55.093Z,19.09
2018-05-27T04:17:55.081Z,19.09
2018-05-27T04:18:55.120Z,18.98
2018-05-27T04:19:55.053Z,18.98
2018-05-27T04:20:55.041Z,19.01
2018-05-27T04:21:55.028Z,19.00
2018-05-27T04:22:55.015Z,18.97
2018-05-27T04:23:55.001Z,19.01
2018-05-27T04:24:54.991Z,19.08
2018-05-27T04:25:54.973Z,19.05
2018-05-27T04:26:54.984Z,19.11
2018-05-27T04:27:54.949Z,19.16
2018-05-27T04:28:54.935Z,19.17
2018-05-27T04:29:54.922Z,19.07
2018-05-27T04:30:54.909Z,19.12
2018-05-27T04:31:54.896Z,18.97
2018-05-27T04:32:54.880Z,19.07
2018-05-27T04:33:54.871Z,19.05
2018-05-27T04:34:54.854Z,19.09
2018-05-27T04:35:54.847Z,19.00
2018-05-27T04:36:54.829Z,19.12
2018-05-27T04:37:54.817Z,19.16
2018-05-27T04:38:54.803Z,19.15
2018-05-27T04:39:54.799Z,19.22
2018-05-27T04:40:54.776Z,19.24
2018-05-27T04:41:54.772Z,19.26
2018-05-27T04:42:54.849Z,19.16
2018-05-27T04:43:54.737Z,19.27
2018-05-27T04:44:54.771Z,19.26
2018-05-27T04:45:54.711Z,19.32
2018-05-27T04:46:54.698Z,19.29
2018-05-27T04:47:54.684Z,19.30
2018-05-27T04:48:54.669Z,19.34
2018-05-27T04:49:54.657Z,19.45
2018-05-27T04:50:54.644Z,19.45
2018-05-27T04:51:54.631Z,19.48
2018-05-27T04:52:54.626Z,19.42
2018-05-27T04:53:54.604Z,19.45
2018-05-27T04:54:54.598Z,19.45
2018-05-27T04:55:54.579Z,19.42
2018-05-27T04:56:54.567Z,19.56
2018-05-27T04:57:54.554Z,19.49
2018-05-27T04:58:54.541Z,19.55
2018-05-27T04:59:54.526Z,19.53
2018-05-27T05:00:54.514Z,19.63
2018-05-27T05:01:54.503Z,19.67
2018-05-27T05:02:54.487Z,19.71
2018-05-27T05:03:54.483Z,19.67
2018-05-27T05:04:54.460Z,19.75
2018-05-27T05:05:54.448Z,19.82
2018-05-27T05:06:54.434Z,19.92
2018-05-27T05:07:54.422Z,19.92
2018-05-27T05:08:54.408Z,19.82
2018-05-27T05:09:54.396Z,19.82
2018-05-27T05:10:54.383Z,19.84
2018-05-27T05:11:54.371Z,19.92
2018-05-27T05:12:54.356Z,19.97
2018-05-27T05:13:54.345Z,19.94
2018-05-27T05:14:54.349Z,20.07
2018-05-27T05:15:54.320Z,20.08
2018-05-27T05:16:54.311Z,20.08
2018-05-27T05:17:54.295Z,20.17
2018-05-27T05:18:54.286Z,20.24
2018-05-27T05:19:54.278Z,20.15
2018-05-27T05:20:54.256Z,20.21
2018-05-27T05:21:54.245Z,20.21
2018-05-27T05:22:54.232Z,20.33
2018-05-27T05:23:54.219Z,20.34
2018-05-27T05:24:54.214Z,20.33
2018-05-27T05:25:54.194Z,20.33
2018-05-27T05:26:54.188Z,20.26
2018-05-27T05:27:54.171Z,20.30
2018-05-27T05:28:54.156Z,20.29
2018-05-27T05:29:54.144Z,20.34
2018-05-27T05:30:54.141Z,20.40
2018-05-27T05:31:54.122Z,20.68
2018-05-27T05:32:54.105Z,21.33
2018-05-27T05:33:54.092Z,22.15
2018-05-27T05:34:54.083Z,22.84
2018-05-27T05:35:54.070Z,23.36
2018-05-27T05:36:54.058Z,23.76
2018-05-27T05:37:54.044Z,24.07
2018-05-27T05:38:54.032Z,24.50
2018-05-27T05:39:54.022Z,24.36
2018-05-27T05:40:54.018Z,24.79
2018-05-27T05:41:53.999Z,24.84
2018-05-27T05:42:53.986Z,25.26
2018-05-27T05:43:53.975Z,25.51
2018-05-27T05:44:53.970Z,25.25
2018-05-27T05:45:53.954Z,25.37
2018-05-27T05:46:53.954Z,25.49
2018-05-27T05:47:53.942Z,25.34
2018-05-27T05:48:53.923Z,25.14
2018-05-27T05:49:53.916Z,25.33
2018-05-27T05:50:53.906Z,25.15
2018-05-27T05:51:53.898Z,25.31
2018-05-27T05:52:53.891Z,25.55
2018-05-27T05:53:53.880Z,26.06
2018-05-27T05:54:53.882Z,26.44
2018-05-27T05:55:53.864Z,26.29
2018-05-27T05:56:53.855Z,26.30
2018-05-27T05:57:53.849Z,26.24
2018-05-27T05:58:53.840Z,26.33
2018-05-27T05:59:53.834Z,26.46
2018-05-27T06:00:53.825Z,26.98
2018-05-27T06:01:53.873Z,27.20
2018-05-27T06:02:53.811Z,27.53
2018-05-27T06:03:53.805Z,27.37
2018-05-27T06:04:53.798Z,26.97
2018-05-27T06:05:53.792Z,26.83
2018-05-27T06:06:53.785Z,26.96
2018-05-27T06:07:53.791Z,27.43
2018-05-27T06:08:53.775Z,27.29
2018-05-27T06:09:53.775Z,27.44
2018-05-27T06:10:53.762Z,27.81
2018-05-27T06:11:53.757Z,27.93
2018-05-27T06:12:53.750Z,27.98
2018-05-27T06:13:53.745Z,27.50
2018-05-27T06:14:53.740Z,27.48
2018-05-27T06:15:53.734Z,27.66
2018-05-27T06:16:53.738Z,27.73
2018-05-27T06:17:53.724Z,28.08
2018-05-27T06:18:53.871Z,28.35
2018-05-27T06:19:53.718Z,28.56
2018-05-27T06:20:53.711Z,28.68
2018-05-27T06:21:53.708Z,28.68
2018-05-27T06:22:53.704Z,28.56
2018-05-27T06:23:53.714Z,28.87
2018-05-27T06:24:53.694Z,29.20
2018-05-27T06:25:53.690Z,29.25
2018-05-27T06:26:53.691Z,29.40
2018-05-27T06:27:53.686Z,29.46
2018-05-27T06:28:53.685Z,29.74
2018-05-27T06:29:53.686Z,29.52
2018-05-27T06:30:53.675Z,29.24
2018-05-27T06:31:53.673Z,29.28
2018-05-27T06:32:53.670Z,29.55
2018-05-27T06:33:53.677Z,29.77
2018-05-27T06:34:53.667Z,29.71
2018-05-27T06:35:53.670Z,29.28
2018-05-27T06:36:53.661Z,29.22
2018-05-27T06:37:53.664Z,29.30
2018-05-27T06:38:53.665Z,29.50
2018-05-27T06:39:53.656Z,29.37
2018-05-27T06:40:53.653Z,29.27
2018-05-27T06:41:53.671Z,29.06
2018-05-27T06:42:53.657Z,29.06
2018-05-27T06:43:53.651Z,29.27
2018-05-27T06:44:53.648Z,29.58
2018-05-27T06:45:53.649Z,29.76
2018-05-27T06:46:53.650Z,29.64
2018-05-27T06:47:53.646Z,29.96
2018-05-27T06:48:53.645Z,29.89
2018-05-27T06:49:53.642Z,29.98
2018-05-27T06:50:53.643Z,30.18
2018-05-27T06:51:53.641Z,29.79
2018-05-27T06:52:53.643Z,29.61
2018-05-27T06:53:53.642Z,28.97
2018-05-27T06:54:53.643Z,28.64
2018-05-27T06:55:53.642Z,28.18
2018-05-27T06:56:53.641Z,28.23
2018-05-27T06:57:53.642Z,28.23
2018-05-27T06:58:53.641Z,28.18
2018-05-27T06:59:53.647Z,27.81
2018-05-27T07:00:53.648Z,27.93
2018-05-27T07:01:53.641Z,27.86
2018-05-27T07:02:53.641Z,28.20
2018-05-27T07:03:53.644Z,28.28
2018-05-27T07:04:53.685Z,28.45
2018-05-27T07:05:53.646Z,28.56
2018-05-27T07:06:53.640Z,28.53
2018-05-27T07:07:53.641Z,28.62
2018-05-27T07:08:53.635Z,29.07
2018-05-27T07:09:53.646Z,29.31
2018-05-27T07:10:53.639Z,29.40
2018-05-27T07:11:53.637Z,29.47
2018-05-27T07:12:53.634Z,29.68
2018-05-27T07:13:53.636Z,29.42
2018-05-27T07:14:53.647Z,28.97
2018-05-27T07:15:53.631Z,28.57
2018-05-27T07:16:53.629Z,28.43
2018-05-27T07:17:53.629Z,28.65
2018-05-27T07:18:53.629Z,28.74
2018-05-27T07:19:53.629Z,28.77
2018-05-27T07:20:53.635Z,28.77
2018-05-27T07:21:53.630Z,28.78
2018-05-27T07:22:53.626Z,28.71
2018-05-27T07:24:53.628Z,28.10
2018-05-27T07:25:53.644Z,28.09
2018-05-27T07:26:53.635Z,27.79
2018-05-27T07:27:53.631Z,27.58
2018-05-27T07:28:53.631Z,27.64
2018-05-27T07:29:53.632Z,27.53
2018-05-27T07:30:53.640Z,27.41
2018-05-27T07:31:53.629Z,27.23
2018-05-27T07:32:53.652Z,27.08
2018-05-27T07:33:53.628Z,27.18
2018-05-27T07:34:53.625Z,27.08
2018-05-27T07:35:53.641Z,27.05
2018-05-27T07:36:53.625Z,27.35
2018-05-27T07:37:53.623Z,27.40
2018-05-27T07:38:53.624Z,27.52
2018-05-27T07:39:53.619Z,27.60
2018-05-27T07:40:53.619Z,27.66
2018-05-27T07:41:53.638Z,27.88
2018-05-27T07:42:53.614Z,28.09
2018-05-27T07:43:53.613Z,28.19
2018-05-27T07:44:53.609Z,28.10
2018-05-27T07:45:53.606Z,27.86
2018-05-27T07:46:53.604Z,27.58
2018-05-27T07:47:53.599Z,27.22
2018-05-27T07:48:53.593Z,27.30
2018-05-27T07:49:53.601Z,27.44
2018-05-27T07:50:53.590Z,27.47
2018-05-27T07:51:53.599Z,27.66
2018-05-27T07:52:53.582Z,27.71
2018-05-27T07:53:53.586Z,27.68
2018-05-27T07:54:53.591Z,27.86
2018-05-27T07:55:53.622Z,27.95
2018-05-27T07:56:53.568Z,27.72
2018-05-27T07:57:53.565Z,27.55
2018-05-27T07:58:53.563Z,27.63
2018-05-27T07:59:53.559Z,27.66
2018-05-27T08:00:53.558Z,27.83
2018-05-27T08:01:53.545Z,27.68
2018-05-27T08:02:53.543Z,27.75
2018-05-27T08:03:53.541Z,27.81
2018-05-27T08:04:53.534Z,27.41
2018-05-27T08:05:53.534Z,27.15
2018-05-27T08:06:53.525Z,27.22
2018-05-27T08:07:53.531Z,27.23
2018-05-27T08:08:53.531Z,27.23
2018-05-27T08:09:53.510Z,27.40
2018-05-27T08:10:53.509Z,27.48
2018-05-27T08:11:53.507Z,27.48
2018-05-27T08:12:53.507Z,27.48
2018-05-27T08:13:53.497Z,27.50
2018-05-27T08:14:53.490Z,27.61
2018-05-27T08:15:53.485Z,27.63
2018-05-27T08:16:53.478Z,27.68
2018-05-27T08:17:53.486Z,27.72
2018-05-27T08:18:53.469Z,27.60
2018-05-27T08:19:53.476Z,27.66
2018-05-27T08:20:53.461Z,27.57
2018-05-27T08:21:53.461Z,27.52
2018-05-27T08:22:53.459Z,27.57
2018-05-27T08:23:53.452Z,27.73
2018-05-27T08:24:53.440Z,27.67
2018-05-27T08:25:53.436Z,27.55
2018-05-27T08:26:53.439Z,27.61
2018-05-27T08:27:53.443Z,27.71
2018-05-27T08:28:53.421Z,27.81
2018-05-27T08:29:53.429Z,27.93
2018-05-27T08:30:53.406Z,27.44
2018-05-27T08:31:53.400Z,27.23
2018-05-27T08:32:53.394Z,27.38
2018-05-27T08:33:53.390Z,27.41
2018-05-27T08:34:53.394Z,27.55
2018-05-27T08:35:53.376Z,27.72
2018-05-27T08:36:53.405Z,27.57
2018-05-27T08:37:53.373Z,27.48
2018-05-27T08:38:53.366Z,27.63
2018-05-27T08:39:53.352Z,27.61
2018-05-27T08:40:53.353Z,27.66
2018-05-27T08:41:53.339Z,27.68
2018-05-27T08:42:53.331Z,27.82
2018-05-27T08:43:53.327Z,27.95
2018-05-27T08:44:53.320Z,28.09
2018-05-27T08:45:53.325Z,27.82
2018-05-27T08:46:53.308Z,27.86
2018-05-27T08:47:53.315Z,28.18
2018-05-27T08:48:53.332Z,28.37
2018-05-27T08:49:53.288Z,28.46
2018-05-27T08:50:53.282Z,28.59
2018-05-27T08:51:53.276Z,28.62
2018-05-27T08:52:53.274Z,28.87
2018-05-27T08:53:53.261Z,29.02
2018-05-27T08:54:53.269Z,29.07
2018-05-27T08:55:53.258Z,28.77
2018-05-27T08:56:53.247Z,28.37
2018-05-27T08:57:53.237Z,28.57
2018-05-27T08:58:53.234Z,29.03
2018-05-27T08:59:53.225Z,29.05
2018-05-27T09:00:53.222Z,29.06
2018-05-27T09:01:53.214Z,29.09
2018-05-27T09:02:53.209Z,28.92
2018-05-27T09:03:53.203Z,28.89
2018-05-27T09:04:53.197Z,28.19
2018-05-27T09:05:53.193Z,28.31
2018-05-27T09:06:53.188Z,28.43
2018-05-27T09:07:53.184Z,28.23
2018-05-27T09:08:53.214Z,28.41
2018-05-27T09:09:53.174Z,28.60
2018-05-27T09:10:53.169Z,28.93
2018-05-27T09:11:53.165Z,29.27
2018-05-27T09:12:53.162Z,29.39
2018-05-27T09:13:53.164Z,29.28
2018-05-27T09:14:53.152Z,29.55
2018-05-27T09:15:53.157Z,29.83
2018-05-27T09:16:53.144Z,29.31
2018-05-27T09:17:53.153Z,28.96
2018-05-27T09:18:53.139Z,29.22
2018-05-27T09:19:53.133Z,29.58
2018-05-27T09:20:53.131Z,29.76
2018-05-27T09:21:53.128Z,30.08
2018-05-27T09:22:53.123Z,30.10
2018-05-27T09:23:53.120Z,29.92
2018-05-27T09:24:53.131Z,29.73
2018-05-27T09:25:53.115Z,29.52
2018-05-27T09:26:53.113Z,29.46
2018-05-27T09:27:53.110Z,29.27
2018-05-27T09:28:53.118Z,29.47
2018-05-27T09:29:53.104Z,29.55
2018-05-27T09:30:53.108Z,29.57
2018-05-27T09:31:53.101Z,29.98
2018-05-27T09:32:53.095Z,30.06
2018-05-27T09:33:53.097Z,30.20
2018-05-27T09:34:53.092Z,30.18
2018-05-27T09:35:53.087Z,30.31
2018-05-27T09:36:53.092Z,30.27
2018-05-27T09:37:53.084Z,30.27
2018-05-27T09:38:53.091Z,30.46
2018-05-27T09:39:53.087Z,30.44
2018-05-27T09:40:53.081Z,30.61
2018-05-27T09:41:53.076Z,30.77
2018-05-27T09:42:53.076Z,30.88
2018-05-27T09:43:53.079Z,30.98
2018-05-27T09:44:53.078Z,30.76
2018-05-27T09:45:53.081Z,30.80
2018-05-27T09:46:53.071Z,30.71
2018-05-27T09:47:53.072Z,30.78
2018-05-27T09:48:53.072Z,30.93
2018-05-27T09:49:53.069Z,31.23
2018-05-27T09:50:53.069Z,31.20
2018-05-27T09:51:53.073Z,31.20
2018-05-27T09:52:53.067Z,31.07
2018-05-27T09:53:53.067Z,31.11
2018-05-27T09:54:53.071Z,31.05
2018-05-27T09:55:53.076Z,31.18
2018-05-27T09:56:53.066Z,31.42
2018-05-27T09:57:53.226Z,31.48
2018-05-27T09:58:53.064Z,31.20
2018-05-27T09:59:53.067Z,30.52
2018-05-27T10:00:53.069Z,30.77
2018-05-27T10:01:53.067Z,31.37
2018-05-27T10:02:53.069Z,31.87
2018-05-27T10:03:53.068Z,32.35
2018-05-27T10:04:53.057Z,32.51
2018-05-27T10:05:53.057Z,32.75
2018-05-27T10:06:53.069Z,32.90
2018-05-27T10:07:53.065Z,33.10
2018-05-27T10:08:53.057Z,33.36
2018-05-27T10:09:53.065Z,33.28
2018-05-27T10:10:53.060Z,33.03
2018-05-27T10:11:53.061Z,33.38
2018-05-27T10:12:53.091Z,32.82
2018-05-27T10:13:53.080Z,32.94
2018-05-27T10:14:53.070Z,32.44
2018-05-27T10:15:53.073Z,31.59
2018-05-27T10:16:53.072Z,31.59
2018-05-27T10:17:53.077Z,32.07
2018-05-27T10:18:53.134Z,32.35
2018-05-27T10:19:53.093Z,32.66
2018-05-27T10:20:53.084Z,32.88
2018-05-27T10:21:53.089Z,32.41
2018-05-27T10:22:53.093Z,32.04
2018-05-27T10:23:53.097Z,30.99
2018-05-27T10:24:53.102Z,30.88
2018-05-27T10:25:53.151Z,31.44
2018-05-27T10:26:53.107Z,32.12
2018-05-27T10:27:53.113Z,32.68
2018-05-27T10:28:53.113Z,33.19
2018-05-27T10:29:53.118Z,33.35
2018-05-27T10:30:53.120Z,32.37
2018-05-27T10:31:53.177Z,32.37
2018-05-27T10:32:53.195Z,32.66
2018-05-27T10:33:53.140Z,32.39
2018-05-27T10:34:53.139Z,32.82
2018-05-27T10:35:53.142Z,33.29
2018-05-27T10:36:53.149Z,31.98
2018-05-27T10:37:53.149Z,32.09
2018-05-27T10:38:53.161Z,32.75
2018-05-27T10:39:53.158Z,32.78
2018-05-27T10:40:53.163Z,33.16
2018-05-27T10:41:53.168Z,33.57
2018-05-27T10:42:53.179Z,33.84
2018-05-27T10:43:53.184Z,34.02
2018-05-27T10:44:53.185Z,34.25
2018-05-27T10:45:53.189Z,34.07
2018-05-27T10:46:53.208Z,33.58
2018-05-27T10:47:53.201Z,33.01
2018-05-27T10:48:53.207Z,32.79
2018-05-27T10:49:53.215Z,32.49
2018-05-27T10:50:53.217Z,32.72
2018-05-27T10:51:53.228Z,32.11
2018-05-27T10:52:53.243Z,31.44
2018-05-27T10:53:53.236Z,31.20
2018-05-27T10:54:53.249Z,31.77
2018-05-27T10:55:53.244Z,31.79
2018-05-27T10:56:53.256Z,32.39
2018-05-27T10:57:53.262Z,32.81
2018-05-27T10:58:53.270Z,33.22
2018-05-27T10:59:53.314Z,32.78
2018-05-27T11:00:53.287Z,32.23
2018-05-27T11:01:53.277Z,32.01
2018-05-27T11:02:53.290Z,31.57
2018-05-27T11:03:53.291Z,31.45
2018-05-27T11:04:53.296Z,32.17
2018-05-27T11:05:53.343Z,31.60
2018-05-27T11:06:53.402Z,31.48
2018-05-27T11:07:53.323Z,31.63
2018-05-27T11:08:53.313Z,31.72
2018-05-27T11:09:53.321Z,31.93
2018-05-27T11:10:53.337Z,32.22
2018-05-27T11:11:53.333Z,32.76
2018-05-27T11:12:53.332Z,33.17
2018-05-27T11:13:53.338Z,33.15
2018-05-27T11:14:53.347Z,33.03
2018-05-27T11:15:53.351Z,32.98
2018-05-27T11:17:53.358Z,32.07
2018-05-27T11:18:53.411Z,31.67
2018-05-27T11:19:53.371Z,31.78
2018-05-27T11:20:53.374Z,31.81
2018-05-27T11:21:53.381Z,31.95
2018-05-27T11:22:53.388Z,32.09
2018-05-27T11:23:53.390Z,32.57
2018-05-27T11:24:53.411Z,32.64
2018-05-27T11:25:53.417Z,32.66
2018-05-27T11:26:53.409Z,32.53
2018-05-27T11:27:53.411Z,32.82
2018-05-27T11:28:53.414Z,33.05
2018-05-27T11:29:53.467Z,32.63
2018-05-27T11:30:53.425Z,31.79
2018-05-27T11:31:53.431Z,31.97
2018-05-27T11:32:53.436Z,31.70
2018-05-27T11:33:53.456Z,32.00
2018-05-27T11:34:53.551Z,31.74
2018-05-27T11:35:53.456Z,31.62
2018-05-27T11:36:53.505Z,30.98
2018-05-27T11:37:53.465Z,30.01
2018-05-27T11:38:53.476Z,30.08
2018-05-27T11:39:53.462Z,30.21
2018-05-27T11:40:53.466Z,30.44
2018-05-27T11:41:53.475Z,30.98
2018-05-27T11:42:53.469Z,31.37
2018-05-27T11:43:53.478Z,31.14
2018-05-27T11:44:53.476Z,31.17
2018-05-27T11:45:53.476Z,31.22
2018-05-27T11:46:53.473Z,31.48
2018-05-27T11:47:53.493Z,31.78
2018-05-27T11:48:53.479Z,31.63
2018-05-27T11:49:53.488Z,31.37
2018-05-27T11:50:53.477Z,31.20
2018-05-27T11:51:53.478Z,31.05
2018-05-27T11:52:53.476Z,31.11
2018-05-27T11:53:53.478Z,31.15
2018-05-27T11:54:53.476Z,30.80
2018-05-27T11:55:53.476Z,30.86
2018-05-27T11:56:53.477Z,30.92
2018-05-27T11:57:53.476Z,30.99
2018-05-27T11:58:53.482Z,30.55
2018-05-27T11:59:53.473Z,30.08
2018-05-27T12:00:53.471Z,30.02
2018-05-27T12:01:53.471Z,30.03
2018-05-27T12:02:53.470Z,29.80
2018-05-27T12:03:53.467Z,29.74
2018-05-27T12:04:53.475Z,29.52
2018-05-27T12:05:53.462Z,29.43
2018-05-27T12:06:53.469Z,29.46
2018-05-27T12:07:53.460Z,29.64
2018-05-27T12:08:53.457Z,29.99
2018-05-27T12:09:53.455Z,30.23
2018-05-27T12:10:53.451Z,30.38
2018-05-27T12:11:53.444Z,30.40
2018-05-27T12:12:53.441Z,30.16
2018-05-27T12:13:53.442Z,30.02
2018-05-27T12:14:53.435Z,30.01
2018-05-27T12:15:53.432Z,30.06
2018-05-27T12:16:53.432Z,30.05
2018-05-27T12:17:53.437Z,29.67
2018-05-27T12:18:53.423Z,29.77
2018-05-27T12:19:53.421Z,29.59
2018-05-27T12:20:53.428Z,29.69
2018-05-27T12:21:53.407Z,29.95
2018-05-27T12:22:53.403Z,30.03
2018-05-27T12:23:53.400Z,29.87
2018-05-27T12:24:53.397Z,29.73
2018-05-27T12:25:53.390Z,29.87
2018-05-27T12:26:53.397Z,30.01
2018-05-27T12:27:53.381Z,29.84
2018-05-27T12:28:53.391Z,29.86
2018-05-27T12:29:53.449Z,29.98
2018-05-27T12:30:53.398Z,29.81
2018-05-27T12:31:53.369Z,29.98
2018-05-27T12:32:53.357Z,30.03
2018-05-27T12:33:53.354Z,30.08
2018-05-27T12:34:53.348Z,30.13
2018-05-27T12:35:53.352Z,29.62
2018-05-27T12:36:53.383Z,29.32
2018-05-27T12:37:53.340Z,29.44
2018-05-27T12:38:53.339Z,29.64
2018-05-27T12:39:53.333Z,29.50
2018-05-27T12:40:53.320Z,29.47
2018-05-27T12:41:53.316Z,29.68
2018-05-27T12:42:53.347Z,29.73
2018-05-27T12:43:53.307Z,29.86
2018-05-27T12:44:53.305Z,29.68
2018-05-27T12:45:53.301Z,29.79
2018-05-27T12:46:53.297Z,29.96
2018-05-27T12:47:53.302Z,30.01
2018-05-27T12:48:53.281Z,29.95
2018-05-27T12:49:53.283Z,29.57
2018-05-27T12:50:53.276Z,29.73
2018-05-27T12:51:53.275Z,29.90
2018-05-27T12:52:53.261Z,29.74
2018-05-27T12:53:53.263Z,29.73
2018-05-27T12:54:53.250Z,29.55
2018-05-27T12:55:53.247Z,29.43
2018-05-27T12:56:53.243Z,29.43